Time;durP1;ratioP1;P1;durP2;ratioP2;P2;SDS_P1;SDS_P2;PMS_P1;PMS_P2;Temp;Humidity;BMP_temperature;BMP_pressure;BME280_temperature;BME280_humidity;BME280_pressure;Samples;Min_cycle;Max_cycle;Signal;HPM_P1;HPM_P2
2021/05/18 00:01:59;;;;;;;2.75;1.00;;;11.50;95.10;;;;;;5024689;28;20017;-77
2021/05/18 00:04:25;;;;;;;1.80;1.30;;;11.50;95.20;;;;;;5007416;28;20014;-78
2021/05/18 00:06:51;;;;;;;2.00;1.40;;;11.60;95.30;;;;;;5023940;28;20006;-78
2021/05/18 00:12:01;;;;;;;2.38;1.50;;;11.50;95.40;;;;;;5024253;28;20064;-78
2021/05/18 00:14:27;;;;;;;3.10;1.63;;;11.60;95.40;;;;;;5009505;28;20018;-78
2021/05/18 00:16:53;;;;;;;2.13;1.20;;;11.60;95.30;;;;;;5008609;28;20013;-77
2021/05/18 00:19:19;;;;;;;1.58;1.20;;;11.60;95.30;;;;;;5008496;28;20014;-78
2021/05/18 00:21:45;;;;;;;1.52;1.13;;;11.60;95.30;;;;;;5024074;28;20013;-78
2021/05/18 00:24:10;;;;;;;2.20;1.33;;;11.60;95.40;;;;;;5024064;28;20024;-77
2021/05/18 00:26:36;;;;;;;2.28;1.00;;;11.50;95.20;;;;;;5007507;28;20018;-78
2021/05/18 00:29:02;;;;;;;1.20;0.95;;;11.50;95.20;;;;;;5007036;28;20046;-77
2021/05/18 00:31:28;;;;;;;1.38;1.00;;;11.40;95.10;;;;;;5035533;28;20029;-78
2021/05/18 00:33:54;;;;;;;1.02;0.80;;;11.30;95.20;;;;;;5059040;28;20020;-77
2021/05/18 00:36:19;;;;;;;1.77;1.10;;;11.30;95.30;;;;;;5048769;28;20010;-78
2021/05/18 00:38:45;;;;;;;2.15;1.20;;;11.30;95.50;;;;;;5023474;28;20006;-78
2021/05/18 00:41:11;;;;;;;1.30;0.90;;;11.30;95.50;;;;;;5007552;28;20088;-79
2021/05/18 00:43:39;;;;;;;1.85;0.98;;;11.30;95.50;;;;;;5028178;28;20037;-78
2021/05/18 00:46:04;;;;;;;3.55;1.80;;;11.30;95.50;;;;;;5012943;28;20010;-78
2021/05/18 00:48:30;;;;;;;3.92;2.85;;;11.40;95.40;;;;;;4991074;28;20009;-78
2021/05/18 00:51:07;;;;;;;2.53;1.90;;;11.30;95.20;;;;;;4991529;28;20129;-77
2021/05/18 00:53:33;;;;;;;6.65;4.00;;;11.40;95.20;;;;;;4995458;28;20024;-77
2021/05/18 00:58:36;;;;;;;4.50;3.03;;;11.30;94.80;;;;;;5007794;28;20310;-78
2021/05/18 01:01:15;;;;;;;4.60;3.03;;;11.30;94.80;;;;;;5006737;28;20032;-78
2021/05/18 01:03:40;;;;;;;4.78;3.38;;;11.30;94.80;;;;;;5007239;28;20081;-78
2021/05/18 01:06:19;;;;;;;4.22;2.95;;;11.30;94.70;;;;;;5006706;28;20206;-78
2021/05/18 01:08:46;;;;;;;4.13;2.83;;;11.30;94.70;;;;;;5023493;28;20253;-78
2021/05/18 01:11:11;;;;;;;4.68;3.10;;;11.40;94.80;;;;;;5061109;28;20164;-78
2021/05/18 01:13:37;;;;;;;4.85;2.85;;;11.40;94.60;;;;;;5042966;28;20089;-78
2021/05/18 01:16:04;;;;;;;4.65;2.30;;;11.40;94.60;;;;;;5058601;28;20014;-78
2021/05/18 01:18:35;;;;;;;4.78;2.20;;;11.40;94.60;;;;;;5043118;28;20084;-78
2021/05/18 01:21:01;;;;;;;6.57;3.90;;;11.40;94.50;;;;;;5043823;28;20014;-78
2021/05/18 01:23:26;;;;;;;4.97;3.75;;;11.40;94.40;;;;;;5059899;28;20044;-78
2021/05/18 01:25:53;;;;;;;7.43;5.07;;;11.30;94.40;;;;;;5059159;28;20051;-78
2021/05/18 01:28:19;;;;;;;8.40;4.38;;;11.30;94.50;;;;;;5043526;28;20072;-78
2021/05/18 01:30:44;;;;;;;6.65;4.03;;;11.30;94.70;;;;;;5006245;28;20049;-78
2021/05/18 01:33:10;;;;;;;3.63;2.70;;;11.30;94.70;;;;;;5006787;28;20081;-78
2021/05/18 01:35:35;;;;;;;3.78;2.70;;;11.30;94.60;;;;;;5023043;28;20240;-78
2021/05/18 01:38:04;;;;;;;2.60;2.10;;;11.30;94.70;;;;;;5026494;28;20014;-78
2021/05/18 01:43:08;;;;;;;2.92;2.10;;;11.40;94.60;;;;;;5022771;28;20021;-77
2021/05/18 01:45:34;;;;;;;1.83;1.60;;;11.40;94.60;;;;;;5006341;28;20078;-77
2021/05/18 01:48:07;;;;;;;2.05;1.50;;;11.50;94.60;;;;;;5022499;28;20025;-78
2021/05/18 01:50:32;;;;;;;3.03;1.40;;;11.60;94.40;;;;;;5025186;28;20018;-78
2021/05/18 01:52:58;;;;;;;3.13;1.80;;;11.50;94.30;;;;;;5008166;28;20218;-78
2021/05/18 01:55:37;;;;;;;1.70;1.38;;;11.50;94.50;;;;;;5023000;28;20010;-78
2021/05/18 01:58:03;;;;;;;2.28;1.52;;;11.50;94.70;;;;;;5022590;28;20018;-78
2021/05/18 02:00:30;;;;;;;3.45;1.90;;;11.50;94.50;;;;;;5006015;28;20327;-78
2021/05/18 02:02:56;;;;;;;3.40;2.30;;;11.50;94.50;;;;;;5006061;28;20010;-78
2021/05/18 02:05:22;;;;;;;1.92;1.48;;;11.40;94.50;;;;;;5005818;28;20063;-78
2021/05/18 02:07:49;;;;;;;2.85;1.85;;;11.40;94.60;;;;;;5022256;28;20029;-78
2021/05/18 02:10:16;;;;;;;3.33;2.33;;;11.40;94.70;;;;;;5005684;28;20017;-78
2021/05/18 02:12:42;;;;;;;4.75;2.45;;;11.50;94.70;;;;;;5022260;28;20025;-78
2021/05/18 02:18:02;;;;;;;3.30;1.92;;;11.60;94.40;;;;;;5022502;28;20021;-78
2021/05/18 02:20:39;;;;;;;2.58;1.45;;;11.70;94.40;;;;;;5022607;28;20073;-78
2021/05/18 02:25:49;;;;;;;2.03;1.50;;;11.70;94.30;;;;;;5023339;28;20017;-77
2021/05/18 02:28:15;;;;;;;2.20;1.50;;;11.70;94.30;;;;;;5037151;28;20246;-78
2021/05/18 02:30:40;;;;;;;4.20;2.53;;;11.70;94.30;;;;;;5021422;28;20025;-78
2021/05/18 02:33:06;;;;;;;5.00;3.05;;;11.70;94.30;;;;;;5049364;28;20018;-78
2021/05/18 02:35:33;;;;;;;4.30;2.50;;;11.70;94.20;;;;;;5049462;28;20006;-77
2021/05/18 02:37:58;;;;;;;3.38;2.17;;;11.60;94.10;;;;;;5049416;28;20331;-77
2021/05/18 02:40:27;;;;;;;5.05;2.55;;;11.60;94.20;;;;;;5047316;28;20052;-77
2021/05/18 02:42:52;;;;;;;3.65;2.58;;;11.70;94.20;;;;;;5042321;28;20035;-77
2021/05/18 02:50:34;;;;;;;4.10;2.45;;;11.60;94.30;;;;;;5040049;28;20229;-77
2021/05/18 02:53:00;;;;;;;2.58;1.70;;;11.70;94.40;;;;;;5044593;28;20013;-77
2021/05/18 02:58:11;;;;;;;2.53;1.90;;;11.60;94.20;;;;;;5040434;28;20021;-77
2021/05/18 03:00:37;;;;;;;2.72;1.95;;;11.60;94.10;;;;;;5012296;28;20029;-77
2021/05/18 03:03:03;;;;;;;3.83;1.95;;;11.60;94.30;;;;;;5027907;28;20021;-77
2021/05/18 03:05:28;;;;;;;5.05;2.47;;;11.50;94.20;;;;;;5013101;28;20014;-77
2021/05/18 03:07:54;;;;;;;3.58;2.35;;;11.50;94.30;;;;;;5029374;28;20018;-76
2021/05/18 03:10:20;;;;;;;3.72;2.25;;;11.50;94.50;;;;;;5029760;28;20025;-79
2021/05/18 03:12:45;;;;;;;3.63;2.22;;;11.50;94.50;;;;;;5010835;28;20010;-77
2021/05/18 03:15:12;;;;;;;3.60;2.13;;;11.40;94.40;;;;;;5008593;28;20081;-76
2021/05/18 03:17:37;;;;;;;2.80;1.98;;;11.40;94.50;;;;;;5008739;28;20014;-77
2021/05/18 03:20:05;;;;;;;3.70;2.03;;;11.40;94.50;;;;;;5015234;28;20059;-78
2021/05/18 03:22:31;;;;;;;4.65;2.70;;;11.40;94.50;;;;;;5061095;28;20065;-77
2021/05/18 03:24:56;;;;;;;4.28;2.90;;;11.40;94.50;;;;;;5061414;28;20013;-78
2021/05/18 03:27:24;;;;;;;5.55;3.00;;;11.40;94.60;;;;;;5060844;28;20012;-78
2021/05/18 03:29:50;;;;;;;4.93;2.80;;;11.30;94.60;;;;;;5043935;28;20013;-77
2021/05/18 03:35:00;;;;;;;2.67;1.83;;;11.50;94.60;;;;;;5044952;28;20013;-77
2021/05/18 03:39:58;;;;;;;8.95;3.25;;;11.60;94.50;;;;;;5044846;28;20056;-78
2021/05/18 03:42:36;;;;;;;6.65;3.10;;;11.50;94.40;;;;;;5028505;28;20206;-78
2021/05/18 04:17:21;;;;;;;5.35;3.58;;;11.80;94.60;;;;;;4988428;28;20015;-77
2021/05/18 04:59:59;;;;;;;8.18;4.80;;;12.20;93.70;;;;;;5037754;28;20022;-77
2021/05/18 05:08:01;;;;;;;6.15;3.78;;;12.20;93.90;;;;;;5036953;28;20086;-77
2021/05/18 05:15:39;;;;;;;5.85;3.83;;;12.20;93.90;;;;;;5061284;28;20058;-78
2021/05/18 05:18:05;;;;;;;7.45;3.55;;;12.30;93.90;;;;;;5066815;28;20010;-78
2021/05/18 05:20:31;;;;;;;5.03;3.15;;;12.30;93.80;;;;;;5041677;28;20075;-78
2021/05/18 05:22:56;;;;;;;8.10;4.28;;;12.40;93.80;;;;;;5042174;28;20067;-78
2021/05/18 05:25:23;;;;;;;6.82;4.82;;;12.40;93.80;;;;;;5042408;28;20372;-78
2021/05/18 05:27:49;;;;;;;6.45;4.47;;;12.30;94.10;;;;;;5058901;28;20212;-78
2021/05/18 05:30:15;;;;;;;6.30;3.53;;;12.40;93.90;;;;;;5041665;28;20342;-77
2021/05/18 05:32:41;;;;;;;8.30;3.90;;;12.50;94.00;;;;;;5059107;28;20010;-78
2021/05/18 05:35:06;;;;;;;5.50;3.25;;;12.50;93.40;;;;;;5052973;28;20072;-78
2021/05/18 05:37:32;;;;;;;7.18;3.00;;;12.50;93.20;;;;;;5039343;28;20014;-78
2021/05/18 05:39:58;;;;;;;4.20;1.95;;;12.50;93.20;;;;;;5022823;28;20237;-78
2021/05/18 05:42:24;;;;;;;5.75;2.78;;;12.60;93.30;;;;;;5037422;28;20036;-79
2021/05/18 05:44:49;;;;;;;3.97;2.00;;;12.60;92.90;;;;;;5039975;28;20006;-79
2021/05/18 05:47:15;;;;;;;4.95;2.33;;;12.60;92.80;;;;;;5037680;28;20143;-78
2021/05/18 05:49:41;;;;;;;5.78;2.17;;;12.70;92.80;;;;;;5059047;28;20001;-78
2021/05/18 05:52:07;;;;;;;3.58;2.05;;;12.70;92.60;;;;;;5040682;28;20025;-78
2021/05/18 05:54:36;;;;;;;2.67;1.73;;;12.70;92.50;;;;;;5056923;28;20326;-79
2021/05/18 05:57:01;;;;;;;3.72;1.90;;;12.80;92.50;;;;;;5051536;28;20010;-78
2021/05/18 05:59:27;;;;;;;3.97;1.52;;;12.90;92.40;;;;;;5012524;28;20024;-79
2021/05/18 06:01:52;;;;;;;2.92;1.80;;;13.00;92.10;;;;;;5037082;28;20013;-77
2021/05/18 06:04:18;;;;;;;5.90;2.03;;;13.00;92.00;;;;;;5030048;28;20079;-78
2021/05/18 06:06:44;;;;;;;5.88;2.45;;;13.00;92.10;;;;;;5021459;28;20017;-79
2021/05/18 06:09:10;;;;;;;3.53;1.88;;;13.00;91.90;;;;;;5033816;28;20018;-79
2021/05/18 06:14:21;;;;;;;5.03;2.00;;;13.00;92.20;;;;;;5030811;28;20150;-78
2021/05/18 06:43:36;;;;;;;3.33;2.10;;;13.60;91.80;;;;;;4963661;28;20090;-78
2021/05/18 06:46:35;;;;;;;1.95;1.50;;;13.80;91.60;;;;;;4970033;28;20123;-79
2021/05/18 06:48:56;;;;;;;3.03;2.45;;;14.00;91.40;;;;;;4973894;28;20322;-81
2021/05/18 06:51:22;;;;;;;4.20;2.47;;;14.10;91.00;;;;;;4981913;28;20620;-78
2021/05/18 06:53:47;;;;;;;2.92;2.00;;;14.00;91.10;;;;;;4997470;28;20323;-81
2021/05/18 06:56:13;;;;;;;2.25;1.80;;;14.20;91.10;;;;;;4990030;28;20024;-80
2021/05/18 07:01:08;;;;;;;4.15;2.28;;;14.40;91.00;;;;;;4988656;28;20049;-80
2021/05/18 07:03:43;;;;;;;4.00;1.88;;;14.30;90.60;;;;;;4978058;28;20017;-82
2021/05/18 07:06:34;;;;;;;2.92;1.60;;;14.30;90.80;;;;;;4962766;28;20026;-81
2021/05/18 07:08:59;;;;;;;3.83;2.13;;;14.30;90.80;;;;;;4964554;28;20579;-79
2021/05/18 07:11:25;;;;;;;2.00;1.63;;;14.20;90.70;;;;;;5004274;28;20037;-79
2021/05/18 07:13:51;;;;;;;2.88;2.10;;;14.20;90.90;;;;;;4959428;28;20833;-81
2021/05/18 07:16:17;;;;;;;3.80;2.67;;;14.20;90.60;;;;;;4987804;28;20307;-80
2021/05/18 07:18:43;;;;;;;4.47;2.35;;;14.00;90.70;;;;;;4970484;28;20087;-80
2021/05/18 07:21:09;;;;;;;3.78;2.78;;;13.90;91.20;;;;;;5008724;28;20029;-79
2021/05/18 07:23:35;;;;;;;4.80;3.13;;;13.90;91.00;;;;;;4997170;28;20215;-82
2021/05/18 07:26:02;;;;;;;4.32;2.90;;;13.80;91.00;;;;;;5005681;28;20017;-84
2021/05/18 07:28:31;;;;;;;4.10;2.85;;;13.90;91.30;;;;;;4989129;28;20615;-81
2021/05/18 07:30:57;;;;;;;3.20;2.40;;;14.10;90.90;;;;;;4994522;28;20673;-82
2021/05/18 07:33:23;;;;;;;4.45;3.33;;;14.20;90.80;;;;;;4960837;28;20030;-78
2021/05/18 07:35:54;;;;;;;4.97;3.13;;;14.30;90.10;;;;;;4981907;28;20211;-79
2021/05/18 07:38:19;;;;;;;5.30;2.83;;;14.20;90.30;;;;;;4992517;28;20021;-79
2021/05/18 07:40:45;;;;;;;4.15;2.50;;;14.40;90.30;;;;;;4995244;28;20367;-79
2021/05/18 07:43:13;;;;;;;5.53;3.88;;;14.40;89.80;;;;;;4963482;28;20314;-78
2021/05/18 07:45:39;;;;;;;4.65;3.38;;;14.20;89.10;;;;;;4989051;28;20107;-80
2021/05/18 07:51:01;;;;;;;5.28;3.10;;;14.10;89.30;;;;;;4982847;28;20099;-79
2021/05/18 07:59:15;;;;;;;3.70;2.42;;;14.10;89.70;;;;;;4978441;28;20441;-81
2021/05/18 08:07:10;;;;;;;4.63;2.95;;;14.30;88.80;;;;;;4959387;28;20128;-82
2021/05/18 08:09:41;;;;;;;4.35;2.92;;;14.00;89.80;;;;;;4957422;28;20810;-77
2021/05/18 08:12:09;;;;;;;6.57;3.10;;;13.80;89.70;;;;;;4938500;28;20029;-77
2021/05/18 08:14:37;;;;;;;3.95;2.63;;;13.50;90.60;;;;;;4986961;28;20034;-77
2021/05/18 08:19:58;;;;;;;4.63;2.53;;;13.50;91.10;;;;;;4965559;28;20029;-83
2021/05/18 08:23:14;;;;;;;3.17;2.10;;;13.40;92.00;;;;;;4969642;28;20064;-83
2021/05/18 08:56:19;;;;;;;9.10;5.78;;;13.80;93.30;;;;;;4976511;28;20028;-85
2021/05/18 09:37:23;;;;;;;10.05;6.75;;;13.70;89.30;;;;;;4978199;28;20330;-79
2021/05/18 10:17:14;;;;;;;6.32;4.15;;;16.00;76.20;;;;;;4988529;28;20178;-79
2021/05/18 10:35:59;;;;;;;9.25;6.10;;;15.20;80.40;;;;;;4991982;28;20018;-77
2021/05/18 10:38:28;;;;;;;7.32;4.97;;;15.10;80.10;;;;;;4956167;28;20030;-79
2021/05/18 10:41:15;;;;;;;8.02;5.75;;;15.10;81.10;;;;;;4992235;28;20426;-76
2021/05/18 10:43:41;;;;;;;8.13;5.43;;;15.30;80.40;;;;;;4946253;28;20021;-78
2021/05/18 10:46:09;;;;;;;6.43;4.65;;;15.10;80.60;;;;;;4965489;28;20084;-75
2021/05/18 10:48:35;;;;;;;9.43;6.97;;;15.20;80.60;;;;;;4948315;28;20018;-76
2021/05/18 10:51:22;;;;;;;11.40;7.68;;;15.10;79.60;;;;;;4968559;28;20094;-78
2021/05/18 10:54:10;;;;;;;11.48;7.68;;;14.80;79.40;;;;;;4978199;28;20410;-78
2021/05/18 10:56:59;;;;;;;11.32;7.70;;;14.50;81.40;;;;;;4977053;28;20376;-79
2021/05/18 10:59:43;;;;;;;12.40;7.60;;;14.30;81.80;;;;;;4947524;28;20028;-78
2021/05/18 11:02:16;;;;;;;11.95;8.45;;;14.20;81.90;;;;;;4937126;28;20619;-79
2021/05/18 11:04:55;;;;;;;13.45;7.53;;;14.10;82.40;;;;;;4938539;28;20052;-79
2021/05/18 11:07:33;;;;;;;9.93;6.50;;;13.90;83.70;;;;;;4968481;28;20018;-79
2021/05/18 11:09:59;;;;;;;9.63;6.60;;;13.80;84.40;;;;;;4938241;28;20411;-79
2021/05/18 11:12:25;;;;;;;10.20;6.15;;;13.80;84.40;;;;;;4926074;28;20429;-79
2021/05/18 11:14:57;;;;;;;8.93;5.95;;;13.70;83.90;;;;;;4941339;28;20729;-78
2021/05/18 11:17:28;;;;;;;8.43;5.60;;;13.70;85.00;;;;;;4940263;28;20865;-77
2021/05/18 11:20:13;;;;;;;9.32;5.43;;;14.00;83.70;;;;;;4950424;28;20768;-78
2021/05/18 11:25:28;;;;;;;8.93;5.38;;;14.10;79.90;;;;;;4952080;28;20773;-78
2021/05/18 11:28:04;;;;;;;6.50;4.50;;;14.20;80.30;;;;;;4971676;28;20048;-78
2021/05/18 11:30:29;;;;;;;9.45;4.88;;;14.40;79.20;;;;;;4941601;28;21124;-76
2021/05/18 11:32:55;;;;;;;6.57;4.45;;;14.60;78.10;;;;;;4964427;28;20496;-76
2021/05/18 11:35:21;;;;;;;5.47;4.18;;;14.40;78.40;;;;;;4963204;28;23039;-76
2021/05/18 11:37:58;;;;;;;6.20;4.75;;;14.50;78.90;;;;;;4937316;28;20013;-76
2021/05/18 11:40:23;;;;;;;7.38;5.10;;;14.40;78.40;;;;;;4944708;28;20503;-76
2021/05/18 11:42:49;;;;;;;6.50;4.10;;;14.20;78.70;;;;;;4923576;28;20254;-75
2021/05/18 11:45:18;;;;;;;9.00;4.38;;;14.20;79.60;;;;;;4968941;28;20374;-77
2021/05/18 11:47:45;;;;;;;7.85;4.40;;;14.20;78.90;;;;;;4945292;28;20652;-76
2021/05/18 11:50:25;;;;;;;7.20;4.35;;;14.10;78.90;;;;;;4940617;28;20017;-77
2021/05/18 11:52:51;;;;;;;8.68;5.13;;;14.10;79.40;;;;;;4913251;28;20283;-79
2021/05/18 11:55:27;;;;;;;9.77;4.25;;;14.20;79.80;;;;;;4910301;28;20021;-75
2021/05/18 11:57:54;;;;;;;7.10;4.18;;;14.00;81.00;;;;;;4965694;28;20375;-76
2021/05/18 12:00:32;;;;;;;7.72;3.92;;;14.00;81.80;;;;;;4936754;28;20111;-76
2021/05/18 12:03:06;;;;;;;6.20;4.20;;;13.90;81.10;;;;;;4971848;28;20025;-76
2021/05/18 12:05:32;;;;;;;6.40;3.90;;;14.00;80.10;;;;;;4966663;28;20099;-75
2021/05/18 12:07:57;;;;;;;6.15;3.85;;;14.20;80.30;;;;;;4960449;28;20132;-78
2021/05/18 12:10:31;;;;;;;5.60;3.53;;;14.20;78.00;;;;;;4965249;28;20047;-75
2021/05/18 12:12:57;;;;;;;5.30;3.60;;;13.90;77.80;;;;;;4960005;28;20363;-76
2021/05/18 12:15:22;;;;;;;6.45;3.10;;;13.90;77.80;;;;;;4942453;28;20527;-76
2021/05/18 12:17:52;;;;;;;5.13;2.50;;;13.80;77.90;;;;;;4946486;28;20543;-75
2021/05/18 12:20:17;;;;;;;5.07;2.92;;;14.30;76.60;;;;;;4975637;28;20216;-76
2021/05/18 12:22:44;;;;;;;4.28;2.47;;;14.50;74.90;;;;;;4965697;28;20124;-79
2021/05/18 12:25:10;;;;;;;3.53;2.15;;;14.80;73.80;;;;;;4945983;28;20688;-77
2021/05/18 12:27:45;;;;;;;5.88;2.50;;;14.70;74.00;;;;;;4942739;28;20072;-77
2021/05/18 12:30:11;;;;;;;4.78;2.55;;;14.70;73.20;;;;;;4958776;28;20190;-76
2021/05/18 12:32:45;;;;;;;6.53;2.85;;;14.70;71.70;;;;;;4999517;28;20551;-76
2021/05/18 12:35:18;;;;;;;3.30;2.10;;;14.80;72.80;;;;;;4996367;28;20204;-79
2021/05/18 12:37:48;;;;;;;5.60;2.88;;;14.90;72.60;;;;;;4997269;28;20385;-81
2021/05/18 12:40:34;;;;;;;5.20;2.15;;;14.70;72.10;;;;;;4952470;28;20598;-77
2021/05/18 12:43:38;;;;;;;3.95;2.30;;;14.70;72.70;;;;;;4994409;28;20437;-81
2021/05/18 12:46:08;;;;;;;4.22;2.45;;;14.50;72.50;;;;;;4962789;28;20029;-77
2021/05/18 12:48:35;;;;;;;3.85;2.20;;;14.30;73.80;;;;;;4981327;28;20017;-77
2021/05/18 12:51:01;;;;;;;3.30;2.13;;;14.20;74.00;;;;;;4975291;28;20800;-78
2021/05/18 12:53:27;;;;;;;5.20;2.67;;;14.00;75.10;;;;;;4997408;28;20314;-78
2021/05/18 12:55:53;;;;;;;4.28;2.60;;;13.70;75.20;;;;;;5000031;28;20370;-76
2021/05/18 12:58:29;;;;;;;4.75;2.90;;;13.50;76.60;;;;;;4999472;28;20055;-76
2021/05/18 13:01:14;;;;;;;4.47;2.40;;;13.50;77.40;;;;;;4963124;28;20942;-76
2021/05/18 13:03:41;;;;;;;4.18;2.22;;;13.50;78.20;;;;;;4954844;28;20021;-77
2021/05/18 13:06:06;;;;;;;5.93;2.17;;;13.60;77.50;;;;;;5001939;28;20005;-76
2021/05/18 13:08:37;;;;;;;5.63;2.58;;;13.60;77.50;;;;;;5035461;28;20108;-77
2021/05/18 13:11:18;;;;;;;3.90;2.40;;;13.70;76.80;;;;;;4995713;28;20036;-77
2021/05/18 13:13:45;;;;;;;3.50;2.33;;;13.60;76.00;;;;;;5019830;28;20026;-76
2021/05/18 13:16:19;;;;;;;3.78;2.30;;;13.50;76.10;;;;;;4995173;28;20056;-76
2021/05/18 13:18:52;;;;;;;6.13;2.70;;;13.60;76.10;;;;;;5025960;28;20030;-76
2021/05/18 13:21:32;;;;;;;4.13;2.30;;;13.50;74.80;;;;;;5018908;28;20029;-76
2021/05/18 13:24:25;;;;;;;3.97;2.47;;;13.60;75.40;;;;;;5011478;28;20018;-76
2021/05/18 13:26:46;;;;;;;4.25;2.17;;;13.80;74.30;;;;;;5012188;28;20018;-76
2021/05/18 13:29:20;;;;;;;4.25;2.20;;;13.90;74.20;;;;;;5042138;28;20205;-76
2021/05/18 13:31:48;;;;;;;5.28;2.67;;;14.10;73.20;;;;;;5039600;28;20032;-76
2021/05/18 13:34:14;;;;;;;3.20;2.10;;;13.90;74.10;;;;;;5013408;28;20013;-76
2021/05/18 13:36:40;;;;;;;4.53;2.38;;;13.90;74.00;;;;;;5025433;28;20081;-76
2021/05/18 13:39:10;;;;;;;4.38;2.25;;;13.80;72.90;;;;;;5006292;28;20370;-76
2021/05/18 13:41:36;;;;;;;4.18;2.40;;;13.90;72.70;;;;;;5034480;28;20096;-76
2021/05/18 13:44:03;;;;;;;5.82;2.38;;;14.00;71.80;;;;;;5012633;28;20022;-76
2021/05/18 13:46:29;;;;;;;3.53;2.10;;;14.00;71.30;;;;;;5028456;28;20026;-76
2021/05/18 13:48:54;;;;;;;4.95;2.00;;;14.20;71.60;;;;;;5001796;28;20021;-76
2021/05/18 13:51:21;;;;;;;4.90;2.65;;;14.50;71.00;;;;;;5021034;28;21116;-76
2021/05/18 13:53:47;;;;;;;4.60;2.30;;;14.60;70.60;;;;;;5019384;28;20082;-76
2021/05/18 13:56:12;;;;;;;4.90;2.38;;;14.70;69.00;;;;;;5040647;28;20018;-76
2021/05/18 13:58:38;;;;;;;4.50;1.95;;;14.70;69.60;;;;;;5030304;28;20021;-76
2021/05/18 14:01:05;;;;;;;3.70;2.30;;;14.90;69.70;;;;;;5027022;28;20063;-77
2021/05/18 14:03:31;;;;;;;3.88;2.08;;;14.90;69.30;;;;;;5032462;28;20014;-76
2021/05/18 14:05:56;;;;;;;5.05;2.35;;;14.90;69.60;;;;;;5003196;28;20040;-76
2021/05/18 14:08:35;;;;;;;2.65;1.80;;;15.00;69.20;;;;;;5017634;28;20114;-76
2021/05/18 14:11:07;;;;;;;6.03;2.30;;;15.00;69.30;;;;;;5028933;28;20026;-76
2021/05/18 14:13:36;;;;;;;3.78;2.60;;;15.00;69.80;;;;;;5030041;28;20070;-75
2021/05/18 14:16:02;;;;;;;4.20;2.58;;;15.00;68.70;;;;;;5026268;28;20029;-76
2021/05/18 14:18:28;;;;;;;4.32;2.53;;;14.60;70.60;;;;;;5049332;28;21091;-75
2021/05/18 14:20:53;;;;;;;4.93;2.60;;;14.20;71.00;;;;;;5035553;28;20006;-75
2021/05/18 14:23:22;;;;;;;5.20;2.88;;;13.90;71.70;;;;;;5015806;28;20037;-75
2021/05/18 14:25:48;;;;;;;3.55;2.22;;;13.90;72.30;;;;;;5053675;28;20049;-75
2021/05/18 14:28:14;;;;;;;4.47;2.22;;;13.90;71.80;;;;;;5064423;28;20048;-75
2021/05/18 14:30:40;;;;;;;5.60;2.50;;;13.90;71.60;;;;;;5056484;28;20217;-75
2021/05/18 14:33:05;;;;;;;6.00;2.53;;;14.00;71.80;;;;;;5055957;28;20018;-74
2021/05/18 14:35:31;;;;;;;4.65;2.28;;;13.80;71.70;;;;;;5025898;28;20010;-74
2021/05/18 14:38:20;;;;;;;3.80;2.25;;;13.50;72.80;;;;;;5025849;28;20014;-74
2021/05/18 14:45:56;;;;;;;3.33;2.25;;;14.20;71.30;;;;;;5054655;28;20060;-74
2021/05/18 14:54:54;;;;;;;3.70;2.40;;;14.00;71.40;;;;;;5055353;28;20020;-74
2021/05/18 14:56:45;;;;;;;6.47;2.97;;;13.90;71.30;;;;;;5009901;28;20025;-74
2021/05/18 14:59:11;;;;;;;3.83;2.55;;;13.90;71.20;;;;;;5008562;28;20120;-74
2021/05/18 15:01:36;;;;;;;3.28;2.20;;;14.00;71.60;;;;;;5008555;28;20206;-74
2021/05/18 15:04:02;;;;;;;3.90;2.60;;;14.00;72.10;;;;;;5031926;28;20021;-74
2021/05/18 15:06:30;;;;;;;4.38;2.70;;;13.80;72.50;;;;;;5059453;28;20024;-74
2021/05/18 15:08:56;;;;;;;5.13;2.78;;;13.50;72.20;;;;;;5044212;28;20013;-74
2021/05/18 15:11:21;;;;;;;3.45;2.70;;;13.30;73.30;;;;;;5044768;28;20028;-74
2021/05/18 15:13:47;;;;;;;4.63;2.35;;;13.30;74.50;;;;;;5044099;28;20064;-74
2021/05/18 15:16:13;;;;;;;4.85;2.30;;;13.50;73.70;;;;;;5027573;28;20100;-74
2021/05/18 15:18:38;;;;;;;4.40;2.35;;;13.70;72.90;;;;;;5028939;28;20064;-74
2021/05/18 15:21:04;;;;;;;4.43;2.30;;;13.80;71.70;;;;;;5045476;28;20040;-74
2021/05/18 15:23:30;;;;;;;3.33;2.35;;;13.60;71.60;;;;;;5031982;28;20020;-74
2021/05/18 15:25:56;;;;;;;2.80;2.00;;;13.50;72.40;;;;;;5023970;28;20041;-74
2021/05/18 15:28:21;;;;;;;3.25;2.28;;;13.60;72.20;;;;;;5026497;28;20234;-74
2021/05/18 15:30:47;;;;;;;4.85;2.78;;;13.60;72.20;;;;;;5042829;28;20041;-74
2021/05/18 15:33:13;;;;;;;4.63;2.78;;;13.60;71.60;;;;;;5043531;28;20041;-77
2021/05/18 15:35:39;;;;;;;3.50;2.15;;;13.70;70.60;;;;;;5044238;28;20013;-77
2021/05/18 15:38:04;;;;;;;3.42;2.30;;;13.70;69.40;;;;;;5044274;28;20005;-77
2021/05/18 15:40:31;;;;;;;5.35;2.40;;;13.80;69.80;;;;;;5044085;28;20046;-77
2021/05/18 15:42:56;;;;;;;5.25;2.50;;;14.00;70.20;;;;;;5042877;28;20065;-77
2021/05/18 15:45:22;;;;;;;4.28;2.50;;;14.00;69.40;;;;;;5024903;28;20014;-77
2021/05/18 15:47:47;;;;;;;6.20;2.40;;;13.90;70.30;;;;;;5023806;28;20009;-77
2021/05/18 15:50:14;;;;;;;4.03;2.50;;;14.00;70.60;;;;;;5007626;28;20014;-77
2021/05/18 15:52:40;;;;;;;3.83;2.30;;;14.00;69.50;;;;;;5008603;28;20028;-77
2021/05/18 15:55:06;;;;;;;4.47;2.65;;;13.90;70.30;;;;;;5010723;28;20009;-77
2021/05/18 15:57:32;;;;;;;4.03;2.30;;;13.80;69.70;;;;;;5007447;28;20072;-77
2021/05/18 15:59:57;;;;;;;3.97;2.30;;;13.80;69.20;;;;;;5059423;28;20021;-77
2021/05/18 16:02:23;;;;;;;4.18;2.50;;;13.90;70.30;;;;;;5060174;28;20069;-77
2021/05/18 16:04:48;;;;;;;2.72;1.90;;;13.90;69.70;;;;;;5043236;28;20100;-78
2021/05/18 16:07:15;;;;;;;6.15;2.95;;;14.00;70.10;;;;;;5045789;28;20020;-78
2021/05/18 16:09:41;;;;;;;4.38;2.78;;;14.00;68.90;;;;;;5043383;28;20024;-78
2021/05/18 16:12:07;;;;;;;4.97;2.50;;;13.90;70.50;;;;;;5043109;28;20021;-78
2021/05/18 16:14:34;;;;;;;4.38;2.40;;;13.70;71.50;;;;;;5042963;28;20246;-78
2021/05/18 16:16:59;;;;;;;3.30;2.05;;;13.70;70.20;;;;;;5026630;28;20009;-79
2021/05/18 16:19:25;;;;;;;3.58;1.85;;;13.70;69.40;;;;;;5043341;28;20039;-78
2021/05/18 16:21:51;;;;;;;4.47;2.40;;;13.90;69.60;;;;;;5043290;28;20027;-78
2021/05/18 16:24:17;;;;;;;3.47;1.70;;;13.80;67.40;;;;;;5043404;28;20017;-78
2021/05/18 16:26:42;;;;;;;4.28;2.20;;;13.80;67.80;;;;;;5043520;28;20017;-77
2021/05/18 16:29:08;;;;;;;5.00;2.45;;;13.70;66.60;;;;;;5026727;28;20049;-79
2021/05/18 16:31:34;;;;;;;4.40;2.70;;;13.70;66.80;;;;;;5027082;28;20029;-78
2021/05/18 16:34:00;;;;;;;3.58;2.17;;;13.50;66.90;;;;;;5028117;28;20344;-79
2021/05/18 16:36:25;;;;;;;3.25;2.33;;;13.60;67.30;;;;;;5029761;28;20017;-79
2021/05/18 16:38:51;;;;;;;5.78;2.72;;;13.60;68.00;;;;;;5031797;28;20029;-79
2021/05/18 16:41:17;;;;;;;4.03;2.65;;;13.60;67.50;;;;;;5008653;28;20041;-79
2021/05/18 16:43:44;;;;;;;3.60;2.38;;;13.60;67.60;;;;;;5023840;28;20334;-78
2021/05/18 16:46:10;;;;;;;4.85;2.40;;;13.60;66.60;;;;;;5039805;28;20013;-79
2021/05/18 16:48:35;;;;;;;4.88;2.72;;;13.60;66.20;;;;;;5023485;28;20252;-78
2021/05/18 16:51:03;;;;;;;4.10;2.45;;;13.50;66.50;;;;;;5025219;28;20025;-78
2021/05/18 16:53:28;;;;;;;2.92;2.00;;;13.50;66.80;;;;;;4991331;28;20266;-79
2021/05/18 16:55:54;;;;;;;5.57;3.03;;;13.50;67.50;;;;;;5004271;28;20017;-78
2021/05/18 16:58:20;;;;;;;5.45;2.70;;;13.50;67.30;;;;;;5043619;28;20036;-77
2021/05/18 17:00:46;;;;;;;6.10;3.03;;;13.50;67.50;;;;;;5026550;28;20017;-77
2021/05/18 17:03:12;;;;;;;4.68;2.33;;;13.50;67.00;;;;;;5043459;28;20329;-79
2021/05/18 17:05:38;;;;;;;4.25;2.20;;;13.50;67.50;;;;;;5043887;28;20016;-77
2021/05/18 17:08:04;;;;;;;1.35;1.13;;;13.50;67.50;;;;;;5026987;28;20057;-78
2021/05/18 17:10:34;;;;;;;4.90;2.50;;;13.60;67.80;;;;;;5031173;28;20021;-78
2021/05/18 17:13:00;;;;;;;3.25;2.15;;;13.60;66.70;;;;;;5007170;28;20033;-79
2021/05/18 17:15:27;;;;;;;4.22;2.20;;;13.60;67.50;;;;;;5006469;28;20018;-79
2021/05/18 17:17:53;;;;;;;4.05;2.15;;;13.50;67.20;;;;;;5006734;28;20068;-78
2021/05/18 17:20:19;;;;;;;3.30;2.30;;;13.50;67.50;;;;;;5007480;28;20085;-78
2021/05/18 17:22:45;;;;;;;3.88;2.58;;;13.50;67.90;;;;;;5024252;28;20121;-78
2021/05/18 17:25:11;;;;;;;4.13;2.00;;;13.50;68.20;;;;;;5024827;28;20010;-78
2021/05/18 17:27:37;;;;;;;3.13;1.80;;;13.40;67.90;;;;;;5023368;28;20042;-78
2021/05/18 17:30:10;;;;;;;4.05;2.28;;;13.40;68.60;;;;;;5034541;28;20399;-78
2021/05/18 17:32:36;;;;;;;3.92;2.30;;;13.40;67.70;;;;;;5058667;28;20338;-78
2021/05/18 17:35:03;;;;;;;2.88;2.22;;;13.30;68.10;;;;;;5043087;28;20013;-78
2021/05/18 17:37:28;;;;;;;2.20;1.50;;;13.20;68.30;;;;;;5040367;28;20036;-78
2021/05/18 17:39:54;;;;;;;3.15;1.75;;;13.20;68.70;;;;;;5006739;28;20041;-78
2021/05/18 17:42:20;;;;;;;1.80;1.42;;;13.30;68.50;;;;;;5026269;28;20021;-77
2021/05/18 17:44:46;;;;;;;3.70;2.28;;;13.30;68.70;;;;;;5013752;28;20068;-78
2021/05/18 17:47:13;;;;;;;3.78;1.85;;;13.30;68.40;;;;;;5022721;28;20052;-78